Friendsville, Illinois
Current Conditions -  °F | °C
As of 11:35 AM on Friday 31 Oct 2014 (Local Time) from KAJG Reporting Station
Overcast Overcast  
Wind Chill: 35°   Ceiling: 5500
Heat Index: 45°   Visibility: 10mi
Dew Point: 32°   Wind: 26mph
Humidity: 61%   Direction: 330°NNW
Pressure: 30.12"   Gusts: 33mph
Location:  38.4145°N, 87.8638°W
Report Text: KAJG 311635Z AUTO 33023G29KT 10SM OVC055 07/00 A3012 RMK AO2
Loading
Personal Weather Stations






























Interactive Weather Map
Tropical Storm Tracking
New forecast layout! Learn more

10-Day Weather Forecast

Advertisements
Track Severe Weather on mobile